createdAt,value
2022-11-26T00:00:07.679Z,29.40
2022-11-26T00:00:17.817Z,30.00
2022-11-26T00:00:27.987Z,29.00
2022-11-26T00:00:38.013Z,29.50
2022-11-26T00:00:48.110Z,29.40
2022-11-26T00:00:58.168Z,29.50
2022-11-26T00:01:08.259Z,29.70
2022-11-26T00:01:18.349Z,29.60
2022-11-26T00:01:28.439Z,30.20
2022-11-26T00:01:38.516Z,31.00
2022-11-26T00:01:48.683Z,30.70
2022-11-26T00:01:58.810Z,30.80
2022-11-26T00:02:08.983Z,29.50
2022-11-26T00:02:19.117Z,30.60
2022-11-26T00:02:29.344Z,31.10
2022-11-26T00:02:39.249Z,32.20
2022-11-26T00:02:49.304Z,30.50
2022-11-26T00:02:59.323Z,29.60
2022-11-26T00:03:09.575Z,29.00
2022-11-26T00:03:19.785Z,29.30
2022-11-26T00:03:29.691Z,29.10
2022-11-26T00:03:39.687Z,29.40
2022-11-26T00:03:49.787Z,30.10
2022-11-26T00:03:59.868Z,30.60
2022-11-26T00:04:09.967Z,30.10
2022-11-26T00:04:20.055Z,30.20
2022-11-26T00:04:30.058Z,31.30
2022-11-26T00:04:40.364Z,32.30
2022-11-26T00:04:50.208Z,32.50
2022-11-26T00:05:00.290Z,31.50
2022-11-26T00:05:10.366Z,31.10
2022-11-26T00:05:20.459Z,30.70
2022-11-26T00:05:30.581Z,30.50
2022-11-26T00:05:40.657Z,29.80
2022-11-26T00:05:50.745Z,30.10
2022-11-26T00:06:00.897Z,30.80
2022-11-26T00:06:10.975Z,31.90
2022-11-26T00:06:21.086Z,31.80
2022-11-26T00:06:31.176Z,33.60
2022-11-26T00:06:41.257Z,34.60
2022-11-26T00:06:51.336Z,34.60
2022-11-26T00:07:01.428Z,33.20
2022-11-26T00:07:11.512Z,32.90
2022-11-26T00:07:21.686Z,32.40
2022-11-26T00:07:31.676Z,32.80
2022-11-26T00:07:41.802Z,33.30
2022-11-26T00:07:52.010Z,34.00
2022-11-26T00:08:01.912Z,33.50
2022-11-26T00:08:12.037Z,33.00
2022-11-26T00:08:22.126Z,33.10
2022-11-26T00:08:32.197Z,32.30
2022-11-26T00:08:42.156Z,32.20
2022-11-26T00:08:52.365Z,31.40
2022-11-26T00:09:02.316Z,31.00
2022-11-26T00:09:12.397Z,29.90
2022-11-26T00:09:22.498Z,30.00
2022-11-26T00:09:32.567Z,31.20
2022-11-26T00:09:42.671Z,32.30
2022-11-26T00:09:52.738Z,34.40
2022-11-26T00:10:02.843Z,35.70
2022-11-26T00:10:12.919Z,36.10
2022-11-26T00:10:22.998Z,34.70
2022-11-26T00:10:33.155Z,33.00
2022-11-26T00:10:43.229Z,32.10
2022-11-26T00:10:53.308Z,31.90
2022-11-26T00:11:03.406Z,32.40
2022-11-26T00:11:13.466Z,32.10
2022-11-26T00:11:23.557Z,32.70
2022-11-26T00:11:33.628Z,32.40
2022-11-26T00:11:43.713Z,32.80
2022-11-26T00:11:53.776Z,33.50
2022-11-26T00:12:03.853Z,32.90
2022-11-26T00:12:13.935Z,33.30
2022-11-26T00:12:24.017Z,32.20
2022-11-26T00:12:34.139Z,32.60
2022-11-26T00:12:44.295Z,33.40
2022-11-26T00:12:54.366Z,35.10
2022-11-26T00:13:04.444Z,35.70
2022-11-26T00:13:14.513Z,35.10
2022-11-26T00:13:24.597Z,34.30
2022-11-26T00:13:34.685Z,33.40
2022-11-26T00:13:44.746Z,34.10
2022-11-26T00:13:54.827Z,35.30
2022-11-26T00:14:04.946Z,34.90
2022-11-26T00:14:15.035Z,33.60
2022-11-26T00:14:25.095Z,32.10
2022-11-26T00:14:35.496Z,33.10
2022-11-26T00:14:45.346Z,34.60
2022-11-26T00:14:55.426Z,35.80
2022-11-26T00:15:05.503Z,35.80
2022-11-26T00:15:15.576Z,35.60
2022-11-26T00:15:25.647Z,35.30
2022-11-26T00:15:35.752Z,35.30
2022-11-26T00:15:45.826Z,34.60
2022-11-26T00:15:55.965Z,33.50
2022-11-26T00:16:06.069Z,34.00
2022-11-26T00:16:16.220Z,33.80
2022-11-26T00:16:26.260Z,33.70
2022-11-26T00:16:36.433Z,32.50
2022-11-26T00:16:46.551Z,32.10
2022-11-26T00:16:56.669Z,31.00
2022-11-26T00:17:06.786Z,30.90
2022-11-26T00:17:16.868Z,31.10
2022-11-26T00:17:26.955Z,30.70
2022-11-26T00:17:37.066Z,30.60
2022-11-26T00:17:47.195Z,29.90
2022-11-26T00:17:57.266Z,31.80
2022-11-26T00:18:07.325Z,31.50
2022-11-26T00:18:17.395Z,32.40
2022-11-26T00:18:27.462Z,31.90
2022-11-26T00:18:37.535Z,33.10
2022-11-26T00:18:47.645Z,34.00
2022-11-26T00:18:57.733Z,34.70
2022-11-26T00:19:07.836Z,35.20
2022-11-26T00:19:17.945Z,34.20
2022-11-26T00:19:28.015Z,34.60
2022-11-26T00:19:38.175Z,33.20
2022-11-26T00:19:48.238Z,36.10
2022-11-26T00:19:58.337Z,36.30
2022-11-26T00:20:08.424Z,37.90
2022-11-26T00:20:18.494Z,35.40
2022-11-26T00:20:28.587Z,35.60
2022-11-26T00:20:38.744Z,35.30
2022-11-26T00:20:48.805Z,35.10
2022-11-26T00:20:58.886Z,33.60
2022-11-26T00:21:08.967Z,34.00
2022-11-26T00:21:19.043Z,34.00
2022-11-26T00:21:29.118Z,34.40
2022-11-26T00:21:39.195Z,33.80
2022-11-26T00:21:49.268Z,34.10
2022-11-26T00:21:59.345Z,34.20
2022-11-26T00:22:09.414Z,34.20
2022-11-26T00:22:19.486Z,33.70
2022-11-26T00:22:29.607Z,33.10
2022-11-26T00:22:39.744Z,32.00
2022-11-26T00:22:49.832Z,31.60
2022-11-26T00:22:59.904Z,35.50
2022-11-26T00:23:09.992Z,37.20
2022-11-26T00:23:20.092Z,37.60
2022-11-26T00:23:30.208Z,34.00
2022-11-26T00:23:40.333Z,33.70
2022-11-26T00:23:50.415Z,34.40
2022-11-26T00:24:00.515Z,34.30
2022-11-26T00:24:10.594Z,33.60
2022-11-26T00:24:20.704Z,33.60
2022-11-26T00:24:30.813Z,35.60
2022-11-26T00:24:40.883Z,36.40
2022-11-26T00:24:50.977Z,36.30
2022-11-26T00:25:01.068Z,35.50
2022-11-26T00:25:11.144Z,35.30
2022-11-26T00:25:21.225Z,34.80
2022-11-26T00:25:31.352Z,33.60
2022-11-26T00:25:41.435Z,32.80
2022-11-26T00:25:51.544Z,33.50
2022-11-26T00:26:01.691Z,34.00
2022-11-26T00:26:11.794Z,35.20
2022-11-26T00:26:21.874Z,37.00
2022-11-26T00:26:31.955Z,39.90
2022-11-26T00:26:42.045Z,40.60
2022-11-26T00:26:52.127Z,39.70
2022-11-26T00:27:02.238Z,37.50
2022-11-26T00:27:12.395Z,35.90
2022-11-26T00:27:22.542Z,34.70
2022-11-26T00:27:32.535Z,34.90
2022-11-26T00:27:42.596Z,34.60
2022-11-26T00:27:52.625Z,34.40
2022-11-26T00:28:02.714Z,32.90
2022-11-26T00:28:12.812Z,33.50
2022-11-26T00:28:22.973Z,33.00
2022-11-26T00:28:33.115Z,34.50
2022-11-26T00:28:43.224Z,33.20
2022-11-26T00:28:53.314Z,31.70
2022-11-26T00:29:03.414Z,30.70
2022-11-26T00:29:13.612Z,30.50
2022-11-26T00:29:23.665Z,31.10
2022-11-26T00:29:33.724Z,30.00
2022-11-26T00:29:43.734Z,29.70
2022-11-26T00:29:53.793Z,30.00
2022-11-26T00:30:03.903Z,31.10
2022-11-26T00:30:13.943Z,32.70
2022-11-26T00:30:23.974Z,33.30
2022-11-26T00:30:34.043Z,36.00
2022-11-26T00:30:44.118Z,37.90
2022-11-26T00:30:54.214Z,37.30
2022-11-26T00:31:04.304Z,34.70
2022-11-26T00:31:14.511Z,33.10
2022-11-26T00:31:24.492Z,33.00
2022-11-26T00:31:34.533Z,33.20
2022-11-26T00:31:44.669Z,32.40
2022-11-26T00:31:54.788Z,33.00
2022-11-26T00:32:04.937Z,32.30
2022-11-26T00:32:15.067Z,31.40
2022-11-26T00:32:25.104Z,30.30
2022-11-26T00:32:35.113Z,30.70
2022-11-26T00:32:45.203Z,33.10
2022-11-26T00:32:55.293Z,35.40
2022-11-26T00:33:05.401Z,36.00
2022-11-26T00:33:15.492Z,35.00
2022-11-26T00:33:25.583Z,33.20
2022-11-26T00:33:35.683Z,33.00
2022-11-26T00:33:45.793Z,32.70
2022-11-26T00:33:55.873Z,32.40
2022-11-26T00:34:05.983Z,32.30
2022-11-26T00:34:16.071Z,32.20
2022-11-26T00:34:26.084Z,32.20
2022-11-26T00:34:36.502Z,31.30
2022-11-26T00:34:46.313Z,30.40
2022-11-26T00:34:56.394Z,30.90
2022-11-26T00:35:06.492Z,32.00
2022-11-26T00:35:16.584Z,32.40
2022-11-26T00:35:26.674Z,31.50
2022-11-26T00:35:36.752Z,30.60
2022-11-26T00:35:46.854Z,29.70
2022-11-26T00:35:56.930Z,30.10
2022-11-26T00:36:07.011Z,29.80
2022-11-26T00:36:17.074Z,29.70
2022-11-26T00:36:27.214Z,29.40
2022-11-26T00:36:37.293Z,29.80
2022-11-26T00:36:47.403Z,30.20
2022-11-26T00:36:57.494Z,30.60
2022-11-26T00:37:07.583Z,30.90
2022-11-26T00:37:17.663Z,30.90
2022-11-26T00:37:27.743Z,30.70
2022-11-26T00:37:37.824Z,30.40
2022-11-26T00:37:47.912Z,30.10
2022-11-26T00:37:58.027Z,29.70
2022-11-26T00:38:08.103Z,30.20
2022-11-26T00:38:18.302Z,30.30
2022-11-26T00:38:28.362Z,30.30
2022-11-26T00:38:38.486Z,30.20
2022-11-26T00:38:48.562Z,30.10
2022-11-26T00:38:58.631Z,30.90
2022-11-26T00:39:08.742Z,30.70
2022-11-26T00:39:18.822Z,31.00
2022-11-26T00:39:28.902Z,30.40
2022-11-26T00:39:39.069Z,30.90
2022-11-26T00:39:49.161Z,30.50
2022-11-26T00:39:59.250Z,31.10
2022-11-26T00:40:09.332Z,31.50
2022-11-26T00:40:19.462Z,32.30
2022-11-26T00:40:29.562Z,31.60
2022-11-26T00:40:39.715Z,30.30
2022-11-26T00:40:49.784Z,29.90
2022-11-26T00:40:59.894Z,30.80
2022-11-26T00:41:10.013Z,31.00
2022-11-26T00:41:20.124Z,30.00
2022-11-26T00:41:30.201Z,29.30
2022-11-26T00:41:40.282Z,29.50
2022-11-26T00:41:50.370Z,29.80
2022-11-26T00:42:00.452Z,31.30
2022-11-26T00:42:10.541Z,30.40
2022-11-26T00:42:20.622Z,30.10
2022-11-26T00:42:30.711Z,29.10
2022-11-26T00:42:40.884Z,28.80
2022-11-26T00:42:50.964Z,28.20
2022-11-26T00:43:02.048Z,27.90
2022-11-26T00:43:11.098Z,28.50
2022-11-26T00:43:21.179Z,28.90
2022-11-26T00:43:31.263Z,28.70
2022-11-26T00:43:41.373Z,29.30
2022-11-26T00:43:51.461Z,29.60
2022-11-26T00:44:01.580Z,29.90
2022-11-26T00:44:11.663Z,29.80
2022-11-26T00:44:21.787Z,30.30
2022-11-26T00:44:31.862Z,31.00
2022-11-26T00:44:41.950Z,31.80
2022-11-26T00:44:52.053Z,31.50
2022-11-26T00:45:02.182Z,30.70
2022-11-26T00:45:12.260Z,30.50
2022-11-26T00:45:22.342Z,30.80
2022-11-26T00:45:32.501Z,30.40
2022-11-26T00:45:42.489Z,30.20
2022-11-26T00:45:52.617Z,30.10
2022-11-26T00:46:02.826Z,31.40
2022-11-26T00:46:12.882Z,31.60
2022-11-26T00:46:23.147Z,32.00
2022-11-26T00:46:32.960Z,31.20
2022-11-26T00:46:43.091Z,31.40
2022-11-26T00:46:53.171Z,30.80
2022-11-26T00:47:03.282Z,30.30
2022-11-26T00:47:13.415Z,30.10
2022-11-26T00:47:23.490Z,29.80
2022-11-26T00:47:33.600Z,29.90
2022-11-26T00:47:43.758Z,29.60
2022-11-26T00:47:53.909Z,31.20
2022-11-26T00:48:04.020Z,31.40
2022-11-26T00:48:14.142Z,32.30
2022-11-26T00:48:24.212Z,31.20
2022-11-26T00:48:34.296Z,31.60
2022-11-26T00:48:44.433Z,31.50
2022-11-26T00:48:54.508Z,31.80
2022-11-26T00:49:04.671Z,31.80
2022-11-26T00:49:14.778Z,31.60
2022-11-26T00:49:24.860Z,31.20
2022-11-26T00:49:34.970Z,31.70
2022-11-26T00:49:45.032Z,32.00
2022-11-26T00:49:55.101Z,31.50
2022-11-26T00:50:05.231Z,30.50
2022-11-26T00:50:15.308Z,30.30
2022-11-26T00:50:25.431Z,31.10
2022-11-26T00:50:35.501Z,31.20
2022-11-26T00:50:45.600Z,30.90
2022-11-26T00:50:55.678Z,30.60
2022-11-26T00:51:05.777Z,31.00
2022-11-26T00:51:15.849Z,30.80
2022-11-26T00:51:25.980Z,32.00
2022-11-26T00:51:36.066Z,31.20
2022-11-26T00:51:46.189Z,32.00
2022-11-26T00:51:56.304Z,32.20
2022-11-26T00:52:06.400Z,32.80
2022-11-26T00:52:16.503Z,33.00
2022-11-26T00:52:26.579Z,32.30
2022-11-26T00:52:36.668Z,32.60
2022-11-26T00:52:46.740Z,31.80
2022-11-26T00:52:56.862Z,32.00
2022-11-26T00:53:06.949Z,32.80
2022-11-26T00:53:17.030Z,33.10
2022-11-26T00:53:27.110Z,32.90
2022-11-26T00:53:37.180Z,32.40
2022-11-26T00:53:47.280Z,31.90
2022-11-26T00:53:57.370Z,31.80
2022-11-26T00:54:07.479Z,32.30
2022-11-26T00:54:17.560Z,32.20
2022-11-26T00:54:27.684Z,31.50
2022-11-26T00:54:38.080Z,31.20
2022-11-26T00:54:47.841Z,30.60
2022-11-26T00:54:57.920Z,31.40
2022-11-26T00:55:07.995Z,31.50
2022-11-26T00:55:18.077Z,32.50
2022-11-26T00:55:28.169Z,32.00
2022-11-26T00:55:38.309Z,31.10
2022-11-26T00:55:48.391Z,31.00
2022-11-26T00:55:58.480Z,31.40
2022-11-26T00:56:08.581Z,32.00
2022-11-26T00:56:18.653Z,30.90
2022-11-26T00:56:30.094Z,29.80
2022-11-26T00:56:38.791Z,28.80
2022-11-26T00:56:48.872Z,29.90
2022-11-26T00:56:58.951Z,29.80
2022-11-26T00:57:09.039Z,30.60
2022-11-26T00:57:19.061Z,29.90
2022-11-26T00:57:29.122Z,30.30
2022-11-26T00:57:39.209Z,31.00
2022-11-26T00:57:49.282Z,30.60
2022-11-26T00:57:59.389Z,31.90
2022-11-26T00:58:09.469Z,31.80
2022-11-26T00:58:19.539Z,32.80
2022-11-26T00:58:29.619Z,31.70
2022-11-26T00:58:39.760Z,30.90
2022-11-26T00:58:49.850Z,31.00
2022-11-26T00:58:59.950Z,31.00
2022-11-26T00:59:10.038Z,31.70
2022-11-26T00:59:20.115Z,31.20
2022-11-26T00:59:30.178Z,31.50
2022-11-26T00:59:40.259Z,31.20
2022-11-26T00:59:50.347Z,31.70
2022-11-26T01:00:00.428Z,32.30
2022-11-26T01:00:10.530Z,31.90
2022-11-26T01:00:20.620Z,32.20
2022-11-26T01:00:30.737Z,31.70
2022-11-26T01:00:40.912Z,30.90
2022-11-26T01:00:51.052Z,29.90
2022-11-26T01:01:01.047Z,28.70
2022-11-26T01:01:11.199Z,29.60
2022-11-26T01:01:21.422Z,29.70
2022-11-26T01:01:31.414Z,31.50
2022-11-26T01:01:41.499Z,30.40
2022-11-26T01:01:51.668Z,30.80
2022-11-26T01:02:01.853Z,31.10
2022-11-26T01:02:11.829Z,31.90
2022-11-26T01:02:21.969Z,31.80
2022-11-26T01:02:32.120Z,30.00
2022-11-26T01:02:42.093Z,29.50
2022-11-26T01:02:52.177Z,30.20
2022-11-26T01:03:02.264Z,30.90
2022-11-26T01:03:12.316Z,31.80
2022-11-26T01:03:22.390Z,31.20
2022-11-26T01:03:32.468Z,31.20
2022-11-26T01:03:42.539Z,30.40
2022-11-26T01:03:52.642Z,31.90
2022-11-26T01:04:02.754Z,32.50
2022-11-26T01:04:12.828Z,32.60
2022-11-26T01:04:23.020Z,32.30
2022-11-26T01:04:32.929Z,31.60
2022-11-26T01:04:43.018Z,31.90
2022-11-26T01:04:53.109Z,31.40
2022-11-26T01:05:03.207Z,31.00
2022-11-26T01:05:13.272Z,30.50
2022-11-26T01:05:23.359Z,30.40
2022-11-26T01:05:33.427Z,30.00
2022-11-26T01:05:43.506Z,29.90
2022-11-26T01:05:53.618Z,30.00
2022-11-26T01:06:03.682Z,30.60
2022-11-26T01:06:13.738Z,31.70
2022-11-26T01:06:23.796Z,31.10
2022-11-26T01:06:33.867Z,30.50
2022-11-26T01:06:43.931Z,28.90
2022-11-26T01:06:53.979Z,28.50
2022-11-26T01:07:04.020Z,28.50
2022-11-26T01:07:14.137Z,29.30
2022-11-26T01:07:24.284Z,30.20
2022-11-26T01:07:34.397Z,30.40
2022-11-26T01:07:44.503Z,30.50
2022-11-26T01:07:54.607Z,30.80
2022-11-26T01:08:04.678Z,31.00
2022-11-26T01:08:14.747Z,30.80
2022-11-26T01:08:24.851Z,30.20
2022-11-26T01:08:34.919Z,30.10
2022-11-26T01:08:44.981Z,29.70
2022-11-26T01:08:55.058Z,30.30
2022-11-26T01:09:05.132Z,30.20
2022-11-26T01:09:15.198Z,30.60
2022-11-26T01:09:25.278Z,30.90
2022-11-26T01:09:35.388Z,30.60
2022-11-26T01:09:45.458Z,30.10
2022-11-26T01:09:55.538Z,29.40
2022-11-26T01:10:05.648Z,30.30
2022-11-26T01:10:15.719Z,30.10
2022-11-26T01:10:25.826Z,29.40
2022-11-26T01:10:35.899Z,29.10
2022-11-26T01:10:45.977Z,30.60
2022-11-26T01:10:56.058Z,31.70
2022-11-26T01:11:06.138Z,31.90
2022-11-26T01:11:16.238Z,31.40
2022-11-26T01:11:26.321Z,30.90
2022-11-26T01:11:36.437Z,30.40
2022-11-26T01:11:50.884Z,31.30
2022-11-26T01:11:57.497Z,31.80
2022-11-26T01:12:07.577Z,31.40
2022-11-26T01:12:17.672Z,30.70
2022-11-26T01:12:27.833Z,30.80
2022-11-26T01:12:37.948Z,31.30
2022-11-26T01:12:48.027Z,31.80
2022-11-26T01:12:58.116Z,31.70
2022-11-26T01:13:08.187Z,32.50
2022-11-26T01:13:18.268Z,33.00
2022-11-26T01:13:28.357Z,34.70
2022-11-26T01:13:38.452Z,34.80
2022-11-26T01:13:48.546Z,34.80
2022-11-26T01:13:58.627Z,33.50
2022-11-26T01:14:08.778Z,32.70
2022-11-26T01:14:18.886Z,31.40
2022-11-26T01:14:28.976Z,30.50
2022-11-26T01:14:39.344Z,30.80
2022-11-26T01:14:49.167Z,31.40
2022-11-26T01:14:59.238Z,32.00
2022-11-26T01:15:09.357Z,31.60
2022-11-26T01:15:19.426Z,31.70
2022-11-26T01:15:29.516Z,31.40
2022-11-26T01:15:39.607Z,31.30
2022-11-26T01:15:49.705Z,30.80
2022-11-26T01:15:59.777Z,29.80
2022-11-26T01:16:09.880Z,29.80
2022-11-26T01:16:20.037Z,29.50
2022-11-26T01:16:30.307Z,29.90
2022-11-26T01:16:40.140Z,29.70
2022-11-26T01:16:50.280Z,29.40
2022-11-26T01:17:00.393Z,30.10
2022-11-26T01:17:10.506Z,30.20
2022-11-26T01:17:20.577Z,29.60
2022-11-26T01:17:30.647Z,28.80
2022-11-26T01:17:40.757Z,28.40
2022-11-26T01:17:50.832Z,28.50
2022-11-26T01:18:00.905Z,29.50
2022-11-26T01:18:10.997Z,29.90
2022-11-26T01:18:21.071Z,30.30
2022-11-26T01:18:31.136Z,30.10
2022-11-26T01:18:41.216Z,29.60
2022-11-26T01:18:51.316Z,29.10
2022-11-26T01:19:01.419Z,29.50
2022-11-26T01:19:11.494Z,30.40
2022-11-26T01:19:21.564Z,31.90
2022-11-26T01:19:31.647Z,32.10
2022-11-26T01:19:41.725Z,31.30
2022-11-26T01:19:51.863Z,31.50
2022-11-26T01:20:01.943Z,31.40
2022-11-26T01:20:12.039Z,32.60
2022-11-26T01:20:25.361Z,31.70
2022-11-26T01:20:32.146Z,32.20
2022-11-26T01:20:42.217Z,33.10
2022-11-26T01:20:52.305Z,32.90
2022-11-26T01:21:02.395Z,32.70
2022-11-26T01:21:12.466Z,32.50
2022-11-26T01:21:22.597Z,33.50
2022-11-26T01:21:32.665Z,34.60
2022-11-26T01:21:42.766Z,34.40
2022-11-26T01:21:52.849Z,35.40
2022-11-26T01:22:02.927Z,34.60
2022-11-26T01:22:13.026Z,33.60
2022-11-26T01:22:23.114Z,32.30
2022-11-26T01:22:33.246Z,32.10
2022-11-26T01:22:43.344Z,32.60
2022-11-26T01:22:53.419Z,32.80
2022-11-26T01:23:03.486Z,32.90
2022-11-26T01:23:13.556Z,32.30
2022-11-26T01:23:23.625Z,32.10
2022-11-26T01:23:33.715Z,31.60
2022-11-26T01:23:43.808Z,32.70
2022-11-26T01:23:53.915Z,32.80
2022-11-26T01:24:04.031Z,32.90
2022-11-26T01:24:14.102Z,32.30
2022-11-26T01:24:24.196Z,31.30
2022-11-26T01:24:34.285Z,30.80
2022-11-26T01:24:44.387Z,31.20
2022-11-26T01:24:54.478Z,31.40
2022-11-26T01:25:04.556Z,30.70
2022-11-26T01:25:14.656Z,30.50
2022-11-26T01:25:24.751Z,31.80
2022-11-26T01:25:34.933Z,32.70
2022-11-26T01:25:44.846Z,32.40
2022-11-26T01:25:54.936Z,31.30
2022-11-26T01:26:06.550Z,31.70
2022-11-26T01:26:15.114Z,32.50
2022-11-26T01:26:25.210Z,33.70
2022-11-26T01:26:35.289Z,34.20
2022-11-26T01:26:45.366Z,34.80
2022-11-26T01:26:55.445Z,34.10
2022-11-26T01:27:05.548Z,32.40
2022-11-26T01:27:15.635Z,31.40
2022-11-26T01:27:25.726Z,31.10
2022-11-26T01:27:35.874Z,32.50
2022-11-26T01:27:45.815Z,32.40
2022-11-26T01:27:55.895Z,32.10
2022-11-26T01:28:05.995Z,31.10
2022-11-26T01:28:16.066Z,30.10
2022-11-26T01:28:26.225Z,30.10
2022-11-26T01:28:36.314Z,29.30
2022-11-26T01:28:46.395Z,30.90
2022-11-26T01:28:56.525Z,31.70
2022-11-26T01:29:06.635Z,31.90
2022-11-26T01:29:16.746Z,31.50
2022-11-26T01:29:26.814Z,30.90
2022-11-26T01:29:36.894Z,31.50
2022-11-26T01:29:46.985Z,30.90
2022-11-26T01:29:57.153Z,30.70
2022-11-26T01:30:07.313Z,30.80
2022-11-26T01:30:17.394Z,30.90
2022-11-26T01:30:27.435Z,30.90
2022-11-26T01:30:37.536Z,31.40
2022-11-26T01:30:47.624Z,31.00
2022-11-26T01:30:57.695Z,31.00
2022-11-26T01:31:07.774Z,30.10
2022-11-26T01:31:17.906Z,31.20
2022-11-26T01:31:28.038Z,31.50
2022-11-26T01:31:38.045Z,32.60
2022-11-26T01:31:48.191Z,32.20
2022-11-26T01:31:58.331Z,31.60
2022-11-26T01:32:08.408Z,30.80
2022-11-26T01:32:18.325Z,30.20
2022-11-26T01:32:29.695Z,29.60
2022-11-26T01:32:38.685Z,29.50
2022-11-26T01:32:48.763Z,29.70
2022-11-26T01:32:58.835Z,30.00
2022-11-26T01:33:08.922Z,30.00
2022-11-26T01:33:19.016Z,30.10
2022-11-26T01:33:29.107Z,30.70
2022-11-26T01:33:39.176Z,30.20
2022-11-26T01:33:49.264Z,29.60
2022-11-26T01:33:59.416Z,29.40
2022-11-26T01:34:09.502Z,29.90
2022-11-26T01:34:19.575Z,29.40
2022-11-26T01:34:29.724Z,29.00
2022-11-26T01:34:39.949Z,29.70
2022-11-26T01:34:49.724Z,30.70
2022-11-26T01:34:59.803Z,30.90
2022-11-26T01:35:09.883Z,30.00
2022-11-26T01:35:19.958Z,30.20
2022-11-26T01:35:30.034Z,30.50
2022-11-26T01:35:40.112Z,30.70
2022-11-26T01:35:50.215Z,30.50
2022-11-26T01:36:00.323Z,30.00
2022-11-26T01:36:10.405Z,29.90
2022-11-26T01:36:20.483Z,30.00
2022-11-26T01:36:30.635Z,30.60
2022-11-26T01:36:40.796Z,30.30
2022-11-26T01:36:50.896Z,29.70
2022-11-26T01:37:00.955Z,29.50
2022-11-26T01:37:11.044Z,30.30
2022-11-26T01:37:21.164Z,30.30
2022-11-26T01:37:31.243Z,30.60
2022-11-26T01:37:41.334Z,30.50
2022-11-26T01:37:51.416Z,31.20
2022-11-26T01:38:01.495Z,31.40
2022-11-26T01:38:11.609Z,31.70
2022-11-26T01:38:21.734Z,31.60
2022-11-26T01:38:31.894Z,31.30
2022-11-26T01:38:41.982Z,31.40
2022-11-26T01:38:52.061Z,30.90
2022-11-26T01:39:02.155Z,31.20
2022-11-26T01:39:12.234Z,31.50
2022-11-26T01:39:22.315Z,31.70
2022-11-26T01:39:32.395Z,31.60
2022-11-26T01:39:42.472Z,30.90
2022-11-26T01:39:52.546Z,30.50
2022-11-26T01:40:02.614Z,29.80
2022-11-26T01:40:12.674Z,30.20
2022-11-26T01:40:22.744Z,30.50
2022-11-26T01:40:32.814Z,30.30
2022-11-26T01:40:42.935Z,29.20
2022-11-26T01:40:53.014Z,30.00
2022-11-26T01:41:03.095Z,30.40
2022-11-26T01:41:13.188Z,30.90
2022-11-26T01:41:23.264Z,30.50
2022-11-26T01:41:33.344Z,30.30
2022-11-26T01:41:43.413Z,29.90
2022-11-26T01:41:53.505Z,30.80
2022-11-26T01:42:03.581Z,31.10
2022-11-26T01:42:13.653Z,31.00
2022-11-26T01:42:23.763Z,30.60
2022-11-26T01:42:33.844Z,30.70
2022-11-26T01:42:43.988Z,30.40
2022-11-26T01:42:54.053Z,29.60
2022-11-26T01:43:04.113Z,29.60
2022-11-26T01:43:14.200Z,30.60
2022-11-26T01:43:24.273Z,30.00
2022-11-26T01:43:34.350Z,30.30
2022-11-26T01:43:44.424Z,30.20
2022-11-26T01:43:54.491Z,30.50
2022-11-26T01:44:04.621Z,30.00
2022-11-26T01:44:14.593Z,29.10
2022-11-26T01:44:24.704Z,28.10
2022-11-26T01:44:34.924Z,29.40
2022-11-26T01:44:44.891Z,30.30
2022-11-26T01:44:54.963Z,31.80
2022-11-26T01:45:05.043Z,30.60
2022-11-26T01:45:15.123Z,31.40
2022-11-26T01:45:25.241Z,30.70
2022-11-26T01:45:35.414Z,30.80
2022-11-26T01:45:45.563Z,30.70
2022-11-26T01:45:55.733Z,31.00
2022-11-26T01:46:05.710Z,31.60
2022-11-26T01:46:15.871Z,30.80
2022-11-26T01:46:25.963Z,30.80
2022-11-26T01:46:36.033Z,30.10
2022-11-26T01:46:46.132Z,30.40
2022-11-26T01:46:56.221Z,29.60
2022-11-26T01:47:06.301Z,29.80
2022-11-26T01:47:16.382Z,29.90
2022-11-26T01:47:26.472Z,30.00
2022-11-26T01:47:36.560Z,29.80
2022-11-26T01:47:46.653Z,29.60
2022-11-26T01:47:56.731Z,28.90
2022-11-26T01:48:06.843Z,28.40
2022-11-26T01:48:16.932Z,28.20
2022-11-26T01:48:27.012Z,28.40
2022-11-26T01:48:37.091Z,29.90
2022-11-26T01:48:47.163Z,30.70
2022-11-26T01:48:57.250Z,32.20
2022-11-26T01:49:07.351Z,32.00
2022-11-26T01:49:17.453Z,31.80
2022-11-26T01:49:27.551Z,31.40
2022-11-26T01:49:37.664Z,31.10
2022-11-26T01:49:47.752Z,31.10
2022-11-26T01:49:57.884Z,31.00
2022-11-26T01:50:07.972Z,31.00
2022-11-26T01:50:18.063Z,30.70
2022-11-26T01:50:28.154Z,31.30
2022-11-26T01:50:38.224Z,31.00
2022-11-26T01:50:48.322Z,31.10
2022-11-26T01:50:58.432Z,30.50
2022-11-26T01:51:08.533Z,30.80
2022-11-26T01:51:18.703Z,30.80
2022-11-26T01:51:28.773Z,31.00
2022-11-26T01:51:38.870Z,31.00
2022-11-26T01:51:48.950Z,31.10
2022-11-26T01:51:59.032Z,32.40
2022-11-26T01:52:09.122Z,33.00
2022-11-26T01:52:19.281Z,32.90
2022-11-26T01:52:29.362Z,32.70
2022-11-26T01:52:39.441Z,31.80
2022-11-26T01:52:49.521Z,30.60
2022-11-26T01:52:59.593Z,30.30
2022-11-26T01:53:09.671Z,30.40
2022-11-26T01:53:19.772Z,30.90
2022-11-26T01:53:29.864Z,29.80
2022-11-26T01:53:39.942Z,29.00
2022-11-26T01:53:50.022Z,29.30
2022-11-26T01:54:00.131Z,29.40
2022-11-26T01:54:10.211Z,30.00
2022-11-26T01:54:20.312Z,29.70
2022-11-26T01:54:30.391Z,31.10
2022-11-26T01:54:40.704Z,31.10
2022-11-26T01:54:50.581Z,31.90
2022-11-26T01:55:00.675Z,31.60
2022-11-26T01:55:10.772Z,31.50
2022-11-26T01:55:20.881Z,30.70
2022-11-26T01:55:31.032Z,29.70
2022-11-26T01:55:41.133Z,30.20
2022-11-26T01:55:51.201Z,30.80
2022-11-26T01:56:01.294Z,32.70
2022-11-26T01:56:11.392Z,32.70
2022-11-26T01:56:21.502Z,32.30
2022-11-26T01:56:31.620Z,32.00
2022-11-26T01:56:41.741Z,31.60
2022-11-26T01:56:51.829Z,33.10
2022-11-26T01:57:01.934Z,32.20
2022-11-26T01:57:12.019Z,32.50
2022-11-26T01:57:22.091Z,31.90
2022-11-26T01:57:32.117Z,31.40
2022-11-26T01:57:42.272Z,32.80
2022-11-26T01:57:52.391Z,33.50
2022-11-26T01:58:02.491Z,34.20
2022-11-26T01:58:12.591Z,32.90
2022-11-26T01:58:22.817Z,32.20
2022-11-26T01:58:36.918Z,33.00
2022-11-26T01:58:43.742Z,34.60
2022-11-26T01:58:53.851Z,35.00
2022-11-26T01:59:03.980Z,34.90
2022-11-26T01:59:14.093Z,33.50
2022-11-26T01:59:24.201Z,32.60
2022-11-26T01:59:34.319Z,31.80
2022-11-26T01:59:44.418Z,32.60
2022-11-26T01:59:54.565Z,32.70
2022-11-26T02:00:04.661Z,32.40
2022-11-26T02:00:14.761Z,30.70
2022-11-26T02:00:24.932Z,30.90
2022-11-26T02:00:35.144Z,31.20
2022-11-26T02:00:45.124Z,32.00
2022-11-26T02:00:55.285Z,32.90
2022-11-26T02:01:05.323Z,33.80
2022-11-26T02:01:15.414Z,33.60
2022-11-26T02:01:25.521Z,32.40
2022-11-26T02:01:35.508Z,31.00
2022-11-26T02:01:45.640Z,30.00
2022-11-26T02:01:55.642Z,30.20
2022-11-26T02:02:05.773Z,31.40
2022-11-26T02:02:15.839Z,31.90
2022-11-26T02:02:25.952Z,32.00
2022-11-26T02:02:36.147Z,30.40
2022-11-26T02:02:46.162Z,30.70
2022-11-26T02:02:56.281Z,30.70
2022-11-26T02:03:06.386Z,32.10
2022-11-26T02:03:16.494Z,32.90
2022-11-26T02:03:26.592Z,33.70
2022-11-26T02:03:36.741Z,32.50
2022-11-26T02:03:46.885Z,31.60
2022-11-26T02:03:56.989Z,31.00
2022-11-26T02:04:07.119Z,31.80
2022-11-26T02:04:17.222Z,32.40
2022-11-26T02:04:27.268Z,32.00
2022-11-26T02:04:37.635Z,32.90
2022-11-26T02:04:47.390Z,33.00
2022-11-26T02:04:57.514Z,33.20
2022-11-26T02:05:07.640Z,32.10
2022-11-26T02:05:17.761Z,31.90
2022-11-26T02:05:27.862Z,31.70
2022-11-26T02:05:37.988Z,31.80
2022-11-26T02:05:48.100Z,31.80
2022-11-26T02:05:58.200Z,32.80
2022-11-26T02:06:08.320Z,33.10
2022-11-26T02:06:18.486Z,33.30
2022-11-26T02:06:28.592Z,33.50
2022-11-26T02:06:38.854Z,33.60
2022-11-26T02:06:48.787Z,33.30
2022-11-26T02:06:58.953Z,34.40
2022-11-26T02:07:09.105Z,33.90
2022-11-26T02:07:19.111Z,34.30
2022-11-26T02:07:29.268Z,33.80
2022-11-26T02:07:39.372Z,34.40
2022-11-26T02:07:49.524Z,34.90
2022-11-26T02:07:59.619Z,34.70
2022-11-26T02:08:09.650Z,35.30
2022-11-26T02:08:19.741Z,35.30
2022-11-26T02:08:29.859Z,35.80
2022-11-26T02:08:39.979Z,35.50
2022-11-26T02:08:50.086Z,35.10
2022-11-26T02:09:00.199Z,33.20
2022-11-26T02:09:10.320Z,33.20
2022-11-26T02:09:20.449Z,33.50
2022-11-26T02:09:30.598Z,35.30
2022-11-26T02:09:40.700Z,35.60
2022-11-26T02:09:50.810Z,34.90
2022-11-26T02:10:00.927Z,34.60